Gachsaran Airport

Airport
ICAO code: 
OIAH
IATA Code: 
GCH
Summary
ICAO Region: 
MID
Territory: 
Location: 
Sharak-E-Hedyat, Kohgiluyeh and Boer-Ahmad Province
Serving: 
Gachsaran
Elevation: 
2414 ft
Coordinates: 
Aerial View: 
30° 20' 9.52" N, 50° 49' 50.438" E
Metar
Observation
OIAH 262000Z 27008KT 2000 DU NSC 32/04 Q1005
Station
Gach Saran Du Gunbadan
Date/Time
2022-06-26 20:00:00
Wind direction
270°
Wind speed
08 kts
Lowest cloud amount
nil significant cloud
Temperature
32°C
Dew point
4°C
Humidity
17%
QNH
1005 hPa
Weather condition
n/a

Airport serving Gachsaran, Iran,

Climatology

Warm Desert climate (Köppen climate classification BWh).

Runways

Designator Length Width Surface Rops
12/30 1850 45 ASP No/No
Airport map: 
Aerial View: 

SKYbrary Partners:

Safety knowledge contributed by: